createdAt,value
2019-05-29T00:01:30.005Z,2.23
2019-05-29T00:03:58.918Z,2.13
2019-05-29T00:06:27.784Z,2.03
2019-05-29T00:08:56.694Z,2.70
2019-05-29T00:11:25.603Z,2.43
2019-05-29T00:13:54.525Z,2.00
2019-05-29T00:16:23.412Z,2.40
2019-05-29T00:18:52.315Z,2.20
2019-05-29T00:21:21.248Z,2.20
2019-05-29T00:23:50.151Z,2.23
2019-05-29T00:26:19.064Z,2.07
2019-05-29T00:28:47.943Z,2.00
2019-05-29T00:31:18.137Z,2.20
2019-05-29T00:33:45.748Z,2.13
2019-05-29T00:36:14.657Z,2.27
2019-05-29T00:38:43.534Z,2.20
2019-05-29T00:41:12.969Z,2.13
2019-05-29T00:43:41.339Z,2.30
2019-05-29T00:46:11.331Z,2.10
2019-05-29T00:48:39.121Z,2.30
2019-05-29T00:51:08.927Z,1.90
2019-05-29T00:53:36.971Z,2.00
2019-05-29T00:56:05.911Z,2.10
2019-05-29T00:58:34.805Z,2.10
2019-05-29T01:01:03.717Z,1.90
2019-05-29T01:03:32.638Z,2.10
2019-05-29T01:06:01.543Z,2.42
2019-05-29T01:08:30.420Z,2.40
2019-05-29T01:10:59.324Z,1.90
2019-05-29T01:13:28.222Z,2.03
2019-05-29T01:15:57.133Z,2.10
2019-05-29T01:18:26.010Z,1.90
2019-05-29T01:20:54.910Z,2.00
2019-05-29T01:23:23.818Z,2.27
2019-05-29T01:25:52.704Z,2.20
2019-05-29T01:28:21.590Z,2.00
2019-05-29T01:30:51.525Z,2.10
2019-05-29T01:33:20.454Z,1.83
2019-05-29T01:35:48.293Z,2.20
2019-05-29T01:38:17.247Z,1.80
2019-05-29T01:40:46.089Z,1.93
2019-05-29T01:43:15.357Z,1.90
2019-05-29T01:45:43.871Z,2.10
2019-05-29T01:48:12.750Z,2.37
2019-05-29T01:50:41.956Z,1.80
2019-05-29T01:53:10.857Z,2.30
2019-05-29T01:55:39.756Z,2.10
2019-05-29T01:58:08.707Z,2.20
2019-05-29T02:00:37.590Z,2.07
2019-05-29T02:03:06.552Z,2.20
2019-05-29T02:05:35.410Z,2.03
2019-05-29T02:08:04.313Z,2.62
2019-05-29T02:10:33.219Z,2.50
2019-05-29T02:13:02.090Z,2.70
2019-05-29T02:15:33.803Z,2.30
2019-05-29T02:17:59.891Z,2.30
2019-05-29T02:20:28.794Z,2.50
2019-05-29T02:22:57.719Z,2.70
2019-05-29T02:25:26.617Z,2.80
2019-05-29T02:27:55.518Z,3.00
2019-05-29T02:30:27.801Z,2.43
2019-05-29T02:32:53.291Z,2.50
2019-05-29T02:35:23.036Z,2.70
2019-05-29T02:37:51.105Z,2.50
2019-05-29T02:40:21.236Z,2.40
2019-05-29T02:42:48.884Z,2.30
2019-05-29T02:45:19.448Z,2.30
2019-05-29T02:47:46.782Z,2.67
2019-05-29T02:50:15.693Z,2.33
2019-05-29T02:52:44.596Z,2.53
2019-05-29T02:55:13.481Z,2.60
2019-05-29T02:57:42.353Z,2.60
2019-05-29T03:00:11.275Z,2.43
2019-05-29T03:02:40.178Z,2.30
2019-05-29T03:05:09.059Z,2.23
2019-05-29T03:07:37.964Z,2.40
2019-05-29T03:10:06.958Z,2.95
2019-05-29T03:12:35.834Z,2.50
2019-05-29T03:17:44.964Z,3.10
2019-05-29T03:20:13.880Z,2.70
2019-05-29T03:22:42.795Z,2.80
2019-05-29T03:25:11.721Z,3.30
2019-05-29T03:27:40.591Z,3.10
2019-05-29T03:30:09.567Z,2.47
2019-05-29T03:32:46.171Z,3.07
2019-05-29T03:35:07.495Z,3.10
2019-05-29T03:37:36.375Z,3.20
2019-05-29T03:40:05.787Z,3.00
2019-05-29T03:42:34.671Z,2.43
2019-05-29T03:45:03.589Z,2.53
2019-05-29T03:47:33.190Z,2.90
2019-05-29T03:50:01.344Z,2.83
2019-05-29T03:52:30.484Z,2.80
2019-05-29T03:54:59.154Z,3.00
2019-05-29T03:57:29.697Z,3.20
2019-05-29T03:59:56.916Z,2.70
2019-05-29T04:02:26.739Z,3.10
2019-05-29T04:04:54.707Z,3.10
2019-05-29T04:07:23.597Z,3.03
2019-05-29T04:09:52.487Z,3.20
2019-05-29T04:12:21.351Z,3.10
2019-05-29T04:14:50.248Z,3.30
2019-05-29T04:17:19.167Z,3.73
2019-05-29T04:19:48.057Z,4.20
2019-05-29T04:22:16.967Z,3.60
2019-05-29T04:24:45.859Z,3.10
2019-05-29T04:27:14.764Z,3.37
2019-05-29T04:29:43.850Z,3.80
2019-05-29T04:32:12.724Z,3.43
2019-05-29T04:34:41.615Z,2.97
2019-05-29T04:37:10.475Z,3.50
2019-05-29T04:39:39.370Z,3.20
2019-05-29T04:42:08.280Z,3.53
2019-05-29T04:44:38.929Z,3.10
2019-05-29T04:47:10.956Z,3.83
2019-05-29T04:49:36.178Z,3.43
2019-05-29T04:52:03.924Z,4.30
2019-05-29T04:54:33.391Z,4.23
2019-05-29T04:57:01.695Z,4.10
2019-05-29T04:59:30.832Z,4.10
2019-05-29T05:01:59.501Z,4.33
2019-05-29T05:04:29.136Z,4.13
2019-05-29T05:06:57.263Z,4.27
2019-05-29T05:09:26.187Z,4.13
2019-05-29T05:11:55.050Z,4.13
2019-05-29T05:14:23.952Z,3.90
2019-05-29T05:16:52.818Z,3.90
2019-05-29T05:19:21.727Z,4.10
2019-05-29T05:21:50.644Z,3.90
2019-05-29T05:24:19.542Z,4.10
2019-05-29T05:26:48.416Z,4.40
2019-05-29T05:29:17.301Z,4.57
2019-05-29T05:31:46.189Z,4.57
2019-05-29T05:34:15.070Z,4.17
2019-05-29T05:36:43.969Z,4.80
2019-05-29T05:39:12.873Z,4.30
2019-05-29T05:41:41.763Z,3.90
2019-05-29T05:44:10.671Z,4.47
2019-05-29T05:46:39.546Z,4.20
2019-05-29T05:49:08.576Z,4.97
2019-05-29T05:51:42.206Z,4.20
2019-05-29T05:54:06.551Z,4.70
2019-05-29T05:56:35.697Z,4.10
2019-05-29T05:59:04.418Z,3.23
2019-05-29T06:01:33.777Z,3.80
2019-05-29T06:04:02.131Z,3.60
2019-05-29T06:06:31.981Z,3.27
2019-05-29T06:08:59.950Z,3.80
2019-05-29T06:11:28.843Z,3.07
2019-05-29T06:13:57.742Z,3.33
2019-05-29T06:16:26.622Z,2.77
2019-05-29T06:18:55.555Z,2.80
2019-05-29T06:21:24.457Z,2.73
2019-05-29T06:23:53.349Z,2.10
2019-05-29T06:26:22.247Z,2.20
2019-05-29T06:28:51.153Z,1.83
2019-05-29T06:31:20.060Z,1.50
2019-05-29T06:33:48.950Z,1.45
2019-05-29T06:36:17.870Z,1.40
2019-05-29T06:38:46.741Z,1.30
2019-05-29T06:41:15.656Z,1.50
2019-05-29T06:43:44.752Z,1.42
2019-05-29T06:46:13.439Z,1.35
2019-05-29T06:48:58.044Z,1.42
2019-05-29T06:51:11.419Z,1.30
2019-05-29T06:53:40.161Z,1.62
2019-05-29T06:56:09.241Z,1.70
2019-05-29T06:58:38.153Z,1.40
2019-05-29T07:01:07.120Z,1.90
2019-05-29T07:03:37.558Z,1.70
2019-05-29T07:06:04.973Z,1.40
2019-05-29T07:08:39.946Z,1.72
2019-05-29T07:11:02.761Z,1.75
2019-05-29T07:13:35.017Z,1.70
2019-05-29T07:16:00.577Z,1.80
2019-05-29T07:18:29.472Z,1.72
2019-05-29T07:20:58.349Z,1.62
2019-05-29T07:23:27.275Z,1.57
2019-05-29T07:25:56.170Z,1.82
2019-05-29T07:28:25.069Z,1.72
2019-05-29T07:31:02.000Z,1.60
2019-05-29T07:33:22.908Z,1.67
2019-05-29T07:35:51.810Z,1.75
2019-05-29T07:38:20.706Z,1.80
2019-05-29T07:40:50.202Z,1.90
2019-05-29T07:43:18.531Z,2.00
2019-05-29T07:45:48.219Z,1.77
2019-05-29T07:48:16.326Z,2.00
2019-05-29T07:50:46.246Z,1.95
2019-05-29T07:53:14.133Z,1.80
2019-05-29T07:55:43.025Z,2.05
2019-05-29T07:58:11.924Z,2.10
2019-05-29T08:01:02.627Z,2.10
2019-05-29T08:03:09.800Z,2.30
2019-05-29T08:05:39.208Z,1.87
2019-05-29T08:08:07.735Z,2.67
2019-05-29T08:10:36.626Z,2.55
2019-05-29T08:13:05.629Z,2.77
2019-05-29T08:15:49.159Z,2.65
2019-05-29T08:18:03.502Z,3.00
2019-05-29T08:20:32.373Z,2.70
2019-05-29T08:23:01.306Z,2.95
2019-05-29T08:25:30.195Z,3.05
2019-05-29T08:27:59.082Z,3.33
2019-05-29T08:30:27.971Z,3.20
2019-05-29T08:32:56.865Z,3.50
2019-05-29T08:35:25.768Z,3.17
2019-05-29T08:37:54.672Z,3.30
2019-05-29T08:40:23.545Z,2.50
2019-05-29T08:42:52.459Z,2.30
2019-05-29T08:45:21.372Z,2.60
2019-05-29T08:47:50.287Z,2.30
2019-05-29T08:50:19.534Z,2.33
2019-05-29T08:52:48.176Z,2.25
2019-05-29T08:55:17.030Z,1.95
2019-05-29T08:57:46.349Z,1.80
2019-05-29T09:00:14.925Z,1.92
2019-05-29T09:02:44.660Z,2.35
2019-05-29T09:05:12.731Z,2.05
2019-05-29T09:07:43.220Z,2.70
2019-05-29T09:10:10.527Z,2.45
2019-05-29T09:12:39.442Z,3.12
2019-05-29T09:15:09.324Z,2.42
2019-05-29T09:17:37.426Z,2.00
2019-05-29T09:20:06.489Z,1.70
2019-05-29T09:22:35.382Z,1.87
2019-05-29T09:25:04.972Z,2.00
2019-05-29T09:27:33.853Z,2.20
2019-05-29T09:30:02.775Z,2.27
2019-05-29T09:32:48.304Z,2.12
2019-05-29T09:35:00.557Z,1.98
2019-05-29T09:37:29.460Z,2.12
2019-05-29T09:39:58.366Z,2.25
2019-05-29T09:42:27.283Z,1.98
2019-05-29T09:44:56.173Z,2.17
2019-05-29T09:47:26.382Z,1.82
2019-05-29T09:49:54.023Z,2.37
2019-05-29T09:52:22.937Z,2.08
2019-05-29T09:54:53.038Z,2.27
2019-05-29T09:57:20.752Z,2.20
2019-05-29T09:59:49.644Z,2.72
2019-05-29T10:02:18.555Z,2.55
2019-05-29T10:04:47.425Z,2.60
2019-05-29T10:07:16.304Z,2.90
2019-05-29T10:09:45.208Z,2.70
2019-05-29T10:12:14.091Z,2.10
2019-05-29T10:14:43.007Z,2.50
2019-05-29T10:17:13.129Z,2.20
2019-05-29T10:19:40.791Z,2.52
2019-05-29T10:22:09.705Z,2.98
2019-05-29T10:24:38.593Z,2.40
2019-05-29T10:27:07.567Z,2.37
2019-05-29T10:29:36.491Z,2.70
2019-05-29T10:32:05.426Z,2.60
2019-05-29T10:34:34.304Z,2.50
2019-05-29T10:37:03.242Z,2.65
2019-05-29T10:39:32.149Z,2.50
2019-05-29T10:42:01.028Z,2.50
2019-05-29T10:44:29.921Z,2.60
2019-05-29T10:46:58.791Z,2.37
2019-05-29T10:49:27.774Z,2.40
2019-05-29T10:52:13.120Z,2.67
2019-05-29T10:54:25.493Z,2.60
2019-05-29T10:56:55.028Z,2.70
2019-05-29T10:59:23.311Z,2.27
2019-05-29T11:01:53.703Z,1.87
2019-05-29T11:04:21.155Z,2.70
2019-05-29T11:06:50.285Z,2.30
2019-05-29T11:09:18.964Z,2.60
2019-05-29T11:11:48.390Z,2.42
2019-05-29T11:14:16.767Z,2.30
2019-05-29T11:16:46.914Z,2.25
2019-05-29T11:19:14.588Z,2.40
2019-05-29T11:21:43.493Z,2.80
2019-05-29T11:24:12.418Z,2.98
2019-05-29T11:26:41.292Z,2.90
2019-05-29T11:29:10.223Z,3.15
2019-05-29T11:31:39.119Z,2.55
2019-05-29T11:34:08.079Z,2.77
2019-05-29T11:36:36.971Z,3.65
2019-05-29T11:39:07.363Z,3.60
2019-05-29T11:41:36.290Z,3.70
2019-05-29T11:44:05.299Z,3.10
2019-05-29T11:46:34.735Z,3.70
2019-05-29T11:49:03.788Z,3.62
2019-05-29T11:51:32.589Z,2.98
2019-05-29T11:54:02.436Z,3.40
2019-05-29T11:56:30.421Z,3.58
2019-05-29T11:58:59.467Z,3.12
2019-05-29T12:01:28.195Z,3.10
2019-05-29T12:04:18.688Z,3.08
2019-05-29T12:06:26.022Z,3.83
2019-05-29T12:08:55.785Z,3.77
2019-05-29T12:11:23.847Z,3.80
2019-05-29T12:13:54.189Z,4.30
2019-05-29T12:16:21.664Z,3.77
2019-05-29T12:18:51.518Z,3.17
2019-05-29T12:21:19.480Z,3.00
2019-05-29T12:23:48.391Z,2.77
2019-05-29T12:26:22.752Z,3.33
2019-05-29T12:28:46.215Z,3.55
2019-05-29T12:31:15.080Z,3.50
2019-05-29T12:33:44.044Z,3.80
2019-05-29T12:36:12.902Z,3.40
2019-05-29T12:38:41.819Z,3.90
2019-05-29T12:41:10.733Z,3.75
2019-05-29T12:43:39.630Z,3.52
2019-05-29T12:46:08.730Z,3.40
2019-05-29T12:48:37.625Z,3.75
2019-05-29T12:51:06.876Z,3.42
2019-05-29T12:53:35.794Z,3.67
2019-05-29T12:56:04.830Z,3.80
2019-05-29T12:58:33.730Z,3.65
2019-05-29T13:01:03.054Z,4.05
2019-05-29T13:03:31.534Z,3.52
2019-05-29T13:06:00.493Z,3.62
2019-05-29T13:08:29.331Z,3.70
2019-05-29T13:10:58.460Z,3.62
2019-05-29T13:13:27.351Z,3.67
2019-05-29T13:15:56.707Z,3.95
2019-05-29T13:18:25.149Z,4.28
2019-05-29T13:20:54.763Z,4.35
2019-05-29T13:23:22.983Z,4.17
2019-05-29T13:25:51.870Z,4.12
2019-05-29T13:28:20.776Z,4.42
2019-05-29T13:30:49.657Z,4.97
2019-05-29T13:33:18.573Z,4.45
2019-05-29T13:35:47.445Z,4.30
2019-05-29T13:38:16.368Z,4.10
2019-05-29T13:40:45.296Z,4.90
2019-05-29T13:43:15.729Z,4.08
2019-05-29T13:45:43.080Z,4.42
2019-05-29T13:48:11.992Z,3.77
2019-05-29T13:50:40.884Z,4.33
2019-05-29T13:53:09.816Z,5.62
2019-05-29T13:55:38.700Z,5.20
2019-05-29T13:58:07.912Z,5.87
2019-05-29T14:00:36.638Z,5.22
2019-05-29T14:03:07.023Z,6.00
2019-05-29T14:05:34.649Z,6.08
2019-05-29T14:08:04.772Z,6.37
2019-05-29T14:10:32.460Z,6.75
2019-05-29T14:13:01.350Z,7.35
2019-05-29T14:15:30.250Z,7.60
2019-05-29T14:18:00.565Z,6.83
2019-05-29T14:20:28.056Z,7.80
2019-05-29T14:22:56.953Z,7.40
2019-05-29T14:25:25.882Z,7.65
2019-05-29T14:27:54.838Z,7.70
2019-05-29T14:30:23.682Z,7.10
2019-05-29T14:32:52.581Z,6.80
2019-05-29T14:35:21.491Z,7.55
2019-05-29T14:37:50.375Z,7.87
2019-05-29T14:40:19.300Z,8.00
2019-05-29T14:42:48.215Z,7.70
2019-05-29T14:45:17.129Z,8.10
2019-05-29T14:47:46.018Z,7.25
2019-05-29T14:50:14.939Z,6.90
2019-05-29T14:52:43.848Z,6.80
2019-05-29T14:55:16.121Z,6.92
2019-05-29T14:57:41.583Z,6.62
2019-05-29T15:00:20.613Z,6.08
2019-05-29T15:02:39.474Z,6.08
2019-05-29T15:05:09.600Z,6.53
2019-05-29T15:07:37.324Z,5.92
2019-05-29T15:10:13.078Z,7.30
2019-05-29T15:12:35.255Z,6.70
2019-05-29T15:15:04.749Z,6.50
2019-05-29T15:17:33.156Z,7.15
2019-05-29T15:20:02.336Z,6.40
2019-05-29T15:22:31.001Z,6.10
2019-05-29T15:25:10.628Z,6.87
2019-05-29T15:27:28.774Z,6.60
2019-05-29T15:29:57.686Z,6.92
2019-05-29T15:32:26.659Z,6.67
2019-05-29T15:34:55.528Z,6.47
2019-05-29T15:37:24.443Z,6.10
2019-05-29T15:39:53.355Z,6.70
2019-05-29T15:42:22.252Z,6.42
2019-05-29T15:44:51.126Z,6.00
2019-05-29T15:47:20.026Z,6.25
2019-05-29T15:49:48.898Z,5.58
2019-05-29T15:52:17.806Z,5.80
2019-05-29T15:54:46.726Z,5.60
2019-05-29T15:57:15.608Z,5.92
2019-05-29T15:59:45.021Z,6.30
2019-05-29T16:02:13.897Z,5.65
2019-05-29T16:04:42.779Z,5.62
2019-05-29T16:07:11.923Z,5.45
2019-05-29T16:09:40.561Z,5.50
2019-05-29T16:12:10.498Z,5.55
2019-05-29T16:14:38.471Z,6.22
2019-05-29T16:17:08.921Z,5.80
2019-05-29T16:19:36.468Z,6.17
2019-05-29T16:22:05.419Z,5.75
2019-05-29T16:24:34.337Z,7.08
2019-05-29T16:27:08.886Z,6.42
2019-05-29T16:29:32.135Z,6.25
2019-05-29T16:32:01.021Z,6.12
2019-05-29T16:34:29.915Z,6.10
2019-05-29T16:36:58.786Z,5.72
2019-05-29T16:39:27.696Z,6.95
2019-05-29T16:41:56.579Z,5.87
2019-05-29T16:44:29.318Z,6.42
2019-05-29T16:46:54.432Z,6.58
2019-05-29T16:49:23.325Z,6.33
2019-05-29T16:51:52.213Z,5.50
2019-05-29T16:54:21.138Z,7.12
2019-05-29T16:56:50.012Z,6.30
2019-05-29T16:59:19.255Z,5.92
2019-05-29T17:01:47.829Z,6.22
2019-05-29T17:04:17.681Z,5.65
2019-05-29T17:06:45.634Z,6.37
2019-05-29T17:09:14.596Z,6.10
2019-05-29T17:11:43.443Z,5.90
2019-05-29T17:14:12.323Z,5.30
2019-05-29T17:16:41.226Z,5.33
2019-05-29T17:19:10.237Z,5.83
2019-05-29T17:21:39.160Z,5.65
2019-05-29T17:24:08.068Z,5.83
2019-05-29T17:26:36.958Z,6.00
2019-05-29T17:29:05.946Z,6.12
2019-05-29T17:31:34.787Z,6.08
2019-05-29T17:34:03.721Z,5.75
2019-05-29T17:36:32.625Z,6.10
2019-05-29T17:39:01.538Z,6.40
2019-05-29T17:41:30.457Z,6.90
2019-05-29T17:43:59.338Z,6.12
2019-05-29T17:46:28.239Z,4.95
2019-05-29T17:48:57.129Z,5.85
2019-05-29T17:51:26.153Z,5.22
2019-05-29T17:53:55.143Z,6.30
2019-05-29T17:56:35.578Z,6.10
2019-05-29T17:58:52.936Z,6.42
2019-05-29T18:01:22.255Z,5.83
2019-05-29T18:03:50.748Z,6.22
2019-05-29T18:06:20.244Z,5.60
2019-05-29T18:08:48.543Z,5.83
2019-05-29T18:11:17.422Z,6.67
2019-05-29T18:13:46.322Z,7.05
2019-05-29T18:16:15.207Z,6.08
2019-05-29T18:18:44.115Z,6.78
2019-05-29T18:21:12.997Z,6.70
2019-05-29T18:23:41.923Z,7.00
2019-05-29T18:26:10.891Z,5.87
2019-05-29T18:28:39.780Z,5.97
2019-05-29T18:31:08.766Z,6.10
2019-05-29T18:33:37.664Z,5.53
2019-05-29T18:36:06.715Z,5.47
2019-05-29T18:38:35.625Z,5.60
2019-05-29T18:41:04.683Z,5.50
2019-05-29T18:43:33.517Z,6.65
2019-05-29T18:46:02.463Z,5.58
2019-05-29T18:48:32.413Z,5.40
2019-05-29T18:51:00.285Z,5.67
2019-05-29T18:53:29.200Z,7.45
2019-05-29T18:55:58.097Z,8.15
2019-05-29T18:58:28.115Z,7.77
2019-05-29T19:00:55.886Z,7.55
2019-05-29T19:03:25.394Z,7.50
2019-05-29T19:05:53.650Z,7.70
2019-05-29T19:08:23.599Z,8.17
2019-05-29T19:10:51.437Z,8.18
2019-05-29T19:13:21.684Z,9.47
2019-05-29T19:15:49.235Z,9.00
2019-05-29T19:18:18.143Z,8.60
2019-05-29T19:20:47.018Z,8.97
2019-05-29T19:23:15.948Z,9.13
2019-05-29T19:25:44.863Z,9.23
2019-05-29T19:28:13.742Z,9.50
2019-05-29T19:30:42.647Z,9.47
2019-05-29T19:33:11.577Z,9.30
2019-05-29T19:35:40.459Z,9.20
2019-05-29T19:38:09.444Z,9.63
2019-05-29T19:40:38.334Z,9.67
2019-05-29T19:43:07.495Z,9.80
2019-05-29T19:45:36.389Z,10.53
2019-05-29T19:48:05.353Z,10.50
2019-05-29T19:50:35.025Z,11.05
2019-05-29T19:53:03.160Z,10.17
2019-05-29T19:55:35.441Z,10.23
2019-05-29T19:58:00.969Z,11.03
2019-05-29T20:00:30.085Z,10.23
2019-05-29T20:02:58.756Z,10.88
2019-05-29T20:05:28.610Z,10.53
2019-05-29T20:07:56.554Z,10.73
2019-05-29T20:10:25.463Z,10.47
2019-05-29T20:12:54.395Z,10.50
2019-05-29T20:15:23.286Z,11.07
2019-05-29T20:17:52.210Z,11.00
2019-05-29T20:20:21.087Z,10.63
2019-05-29T20:22:49.992Z,10.27
2019-05-29T20:25:18.898Z,10.23
2019-05-29T20:27:47.804Z,11.03
2019-05-29T20:30:16.820Z,10.70
2019-05-29T20:32:45.787Z,11.57
2019-05-29T20:35:14.738Z,10.60
2019-05-29T20:37:43.644Z,11.40
2019-05-29T20:40:12.558Z,11.63
2019-05-29T20:42:42.538Z,10.47
2019-05-29T20:45:10.390Z,11.10
2019-05-29T20:47:39.967Z,11.80
2019-05-29T20:50:08.227Z,11.53
2019-05-29T20:52:37.396Z,11.80
2019-05-29T20:55:06.078Z,11.50
2019-05-29T20:57:35.882Z,11.10
2019-05-29T21:00:04.104Z,11.40
2019-05-29T21:02:33.972Z,12.27
2019-05-29T21:05:01.877Z,11.10
2019-05-29T21:07:30.802Z,12.13
2019-05-29T21:09:59.703Z,11.27
2019-05-29T21:12:28.640Z,12.15
2019-05-29T21:14:57.533Z,12.45
2019-05-29T21:17:26.422Z,12.30
2019-05-29T21:19:55.326Z,12.03
2019-05-29T21:22:24.234Z,12.70
2019-05-29T21:25:02.371Z,12.20
2019-05-29T21:27:22.088Z,12.13
2019-05-29T21:29:51.013Z,12.23
2019-05-29T21:32:19.930Z,12.50
2019-05-29T21:34:48.829Z,11.80
2019-05-29T21:37:17.742Z,11.80
2019-05-29T21:39:46.786Z,12.20
2019-05-29T21:42:15.581Z,11.90
2019-05-29T21:44:44.917Z,12.03
2019-05-29T21:47:13.396Z,12.82
2019-05-29T21:49:43.249Z,13.25
2019-05-29T21:52:11.330Z,11.53
2019-05-29T21:54:41.364Z,13.00
2019-05-29T21:57:09.067Z,12.95
2019-05-29T21:59:37.960Z,11.70
2019-05-29T22:02:06.912Z,12.60
2019-05-29T22:04:35.853Z,13.37
2019-05-29T22:07:04.764Z,14.50
2019-05-29T22:09:33.636Z,13.60
2019-05-29T22:12:02.532Z,13.50
2019-05-29T22:14:31.458Z,11.97
2019-05-29T22:17:01.238Z,13.83
2019-05-29T22:19:29.231Z,14.00
2019-05-29T22:21:59.164Z,14.83
2019-05-29T22:24:27.073Z,15.20
2019-05-29T22:26:57.247Z,14.57
2019-05-29T22:29:24.908Z,15.43
2019-05-29T22:31:53.824Z,15.67
2019-05-29T22:34:22.732Z,14.40
2019-05-29T22:36:51.650Z,14.97
2019-05-29T22:39:20.587Z,15.23
2019-05-29T22:41:49.519Z,15.27
2019-05-29T22:44:18.425Z,16.60
2019-05-29T22:46:47.358Z,13.90
2019-05-29T22:49:16.300Z,15.30
2019-05-29T22:51:45.223Z,15.30
2019-05-29T22:54:14.105Z,13.80
2019-05-29T22:56:43.016Z,14.83
2019-05-29T22:59:12.028Z,15.13
2019-05-29T23:01:40.942Z,15.40
2019-05-29T23:04:09.920Z,15.43
2019-05-29T23:06:38.836Z,15.07
2019-05-29T23:09:07.834Z,15.85
2019-05-29T23:11:36.726Z,15.17
2019-05-29T23:14:05.633Z,13.97
2019-05-29T23:16:34.557Z,13.37
2019-05-29T23:19:03.449Z,15.37
2019-05-29T23:21:32.379Z,14.90
2019-05-29T23:24:01.752Z,15.20
2019-05-29T23:26:30.195Z,14.60
2019-05-29T23:28:59.326Z,16.27
2019-05-29T23:31:28.038Z,16.13
2019-05-29T23:33:56.991Z,15.27
2019-05-29T23:36:25.886Z,16.03
2019-05-29T23:38:55.101Z,15.53
2019-05-29T23:41:23.686Z,15.77
2019-05-29T23:43:53.357Z,18.05
2019-05-29T23:46:21.501Z,15.30
2019-05-29T23:48:50.420Z,15.27
2019-05-29T23:51:19.353Z,15.77
2019-05-29T23:53:48.284Z,15.70
2019-05-29T23:56:17.156Z,17.40
2019-05-29T23:58:46.085Z,16.10
